Latest Weather Forecast - Tuesday, 6th November 2018 (6am)

 

Date: Tuesday 6th November, 2018
Valid from: 6:00 am to 12:00 pm
Synopsis: A surface to low level trough is affecting the island
Forecast: Partly cloudy with occasional showers at first becoming partly cloudy to cloudy with some scattered showers and a chance of isolated thunderstorms
Weather Advisory: Residents and motorists should be alert, due to accumulated rainfall
Winds: NE to ENE at 20 - 30 km/h (12 to 19 mph)
Sea Conditions: Slight to moderate in open water; swells 1.0 m – 2.0m
Marine 
Advisory/Warning:
None
Tides:
High: currently 5:20 pm  
Low: 12:22 pm 10:10 pm

Aviation WX

[Source: ADDS]
METAR
TVSA 190100Z 07011KT 9999 BKN018 27/24 Q1014 =
TVSA 182300Z 1900/1924 07013KT 9999 SCT018 TEMPO 1912/1918 5000 SHRA BKN014
TAF
TVSA 182300Z 1900/1924 07013KT 9999 SCT018 TEMPO 1912/1918 5000 SHRA BKN014 =
SR / SS: 10:05 / 21:34 UTC (Sunrise Sunset 2018-11-18)